createdAt,value
2019-03-08T00:00:35.875Z,10.10
2019-03-08T00:01:39.803Z,9.77
2019-03-08T00:02:43.815Z,12.20
2019-03-08T00:03:47.458Z,10.33
2019-03-08T00:04:51.094Z,9.77
2019-03-08T00:05:54.762Z,12.63
2019-03-08T00:06:58.470Z,9.57
2019-03-08T00:08:02.100Z,7.47
2019-03-08T00:09:06.681Z,10.93
2019-03-08T00:10:11.185Z,11.63
2019-03-08T00:11:14.821Z,9.27
2019-03-08T00:12:18.460Z,10.23
2019-03-08T00:13:22.166Z,9.43
2019-03-08T00:14:25.879Z,6.73
2019-03-08T00:15:29.621Z,7.50
2019-03-08T00:16:33.332Z,9.13
2019-03-08T00:17:37.343Z,8.03
2019-03-08T00:18:40.975Z,8.30
2019-03-08T00:19:44.638Z,7.73
2019-03-08T00:20:48.277Z,9.10
2019-03-08T00:21:51.918Z,8.63
2019-03-08T00:22:55.543Z,7.70
2019-03-08T00:23:59.179Z,8.17
2019-03-08T00:25:03.300Z,9.10
2019-03-08T00:26:06.939Z,9.27
2019-03-08T00:27:10.571Z,11.23
2019-03-08T00:28:14.282Z,7.77
2019-03-08T00:29:17.874Z,12.97
2019-03-08T00:30:21.515Z,11.23
2019-03-08T00:31:25.159Z,11.47
2019-03-08T00:32:29.064Z,9.60
2019-03-08T00:33:32.698Z,10.83
2019-03-08T00:34:36.330Z,13.30
2019-03-08T00:35:40.008Z,12.90
2019-03-08T00:36:43.564Z,13.03
2019-03-08T00:37:47.206Z,10.20
2019-03-08T00:38:50.846Z,10.37
2019-03-08T00:39:54.465Z,10.37
2019-03-08T00:40:58.190Z,10.43
2019-03-08T00:42:01.814Z,13.40
2019-03-08T00:43:05.450Z,10.60
2019-03-08T00:44:09.086Z,11.50
2019-03-08T00:45:17.137Z,11.13
2019-03-08T00:46:20.803Z,9.07
2019-03-08T00:47:27.399Z,10.47
2019-03-08T00:48:31.318Z,14.73
2019-03-08T00:49:35.418Z,14.93
2019-03-08T00:50:39.070Z,9.23
2019-03-08T00:51:42.740Z,13.30
2019-03-08T00:52:46.374Z,9.40
2019-03-08T00:53:50.009Z,9.57
2019-03-08T00:54:53.638Z,8.10
2019-03-08T00:55:57.274Z,10.70
2019-03-08T00:57:00.947Z,13.97
2019-03-08T00:58:04.784Z,10.00
2019-03-08T00:59:08.416Z,8.63
2019-03-08T01:00:20.295Z,9.07
2019-03-08T01:01:23.938Z,12.63
2019-03-08T01:02:27.951Z,11.13
2019-03-08T01:03:31.579Z,7.73
2019-03-08T01:04:35.678Z,10.77
2019-03-08T01:05:39.495Z,8.33
2019-03-08T01:06:43.411Z,12.07
2019-03-08T01:07:47.213Z,11.10
2019-03-08T01:08:50.865Z,10.60
2019-03-08T01:09:54.571Z,10.67
2019-03-08T01:10:58.474Z,13.60
2019-03-08T01:12:02.099Z,12.73
2019-03-08T01:13:05.869Z,11.67
2019-03-08T01:14:09.595Z,9.03
2019-03-08T01:15:15.897Z,10.83
2019-03-08T01:16:19.525Z,10.80
2019-03-08T01:17:23.162Z,12.37
2019-03-08T01:18:26.812Z,10.33
2019-03-08T01:19:30.454Z,12.53
2019-03-08T01:20:34.086Z,12.27
2019-03-08T01:21:37.795Z,9.83
2019-03-08T01:22:41.530Z,15.70
2019-03-08T01:23:45.498Z,17.30
2019-03-08T01:24:49.134Z,15.17
2019-03-08T01:25:52.768Z,14.80
2019-03-08T01:26:56.395Z,13.73
2019-03-08T01:28:05.593Z,13.77
2019-03-08T01:29:09.359Z,16.67
2019-03-08T01:30:13.290Z,14.93
2019-03-08T01:31:17.023Z,11.17
2019-03-08T01:32:20.724Z,11.70
2019-03-08T01:33:24.411Z,13.20
2019-03-08T01:34:28.466Z,9.13
2019-03-08T01:35:32.174Z,11.47
2019-03-08T01:36:35.795Z,9.07
2019-03-08T01:37:39.491Z,10.23
2019-03-08T01:38:43.527Z,8.97
2019-03-08T01:39:47.264Z,12.17
2019-03-08T01:40:50.900Z,11.27
2019-03-08T01:41:54.598Z,12.17
2019-03-08T01:42:58.228Z,9.63
2019-03-08T01:44:01.930Z,14.80
2019-03-08T01:45:07.594Z,11.87
2019-03-08T01:46:11.557Z,9.47
2019-03-08T01:47:15.255Z,12.30
2019-03-08T01:48:18.961Z,10.53
2019-03-08T01:49:22.608Z,12.07
2019-03-08T01:50:26.346Z,11.23
2019-03-08T01:51:29.981Z,10.00
2019-03-08T01:52:33.616Z,12.13
2019-03-08T01:53:37.524Z,12.20
2019-03-08T01:54:41.218Z,9.27
2019-03-08T01:55:45.074Z,9.90
2019-03-08T01:56:48.708Z,10.13
2019-03-08T01:57:52.337Z,13.63
2019-03-08T01:58:55.969Z,12.00
2019-03-08T01:59:59.605Z,10.20
2019-03-08T02:01:03.355Z,10.63
2019-03-08T02:02:07.055Z,11.70
2019-03-08T02:03:10.759Z,14.23
2019-03-08T02:04:14.383Z,12.80
2019-03-08T02:05:18.482Z,10.63
2019-03-08T02:06:22.166Z,14.10
2019-03-08T02:07:25.908Z,9.73
2019-03-08T02:08:29.619Z,12.47
2019-03-08T02:09:33.637Z,9.93
2019-03-08T02:10:37.450Z,11.33
2019-03-08T02:11:41.144Z,10.90
2019-03-08T02:12:44.747Z,12.03
2019-03-08T02:13:48.375Z,10.13
2019-03-08T02:14:52.164Z,12.47
2019-03-08T02:15:55.832Z,12.20
2019-03-08T02:16:59.519Z,8.53
2019-03-08T02:18:03.219Z,12.27
2019-03-08T02:19:06.845Z,9.83
2019-03-08T02:20:13.344Z,10.90
2019-03-08T02:21:16.983Z,12.20
2019-03-08T02:22:20.680Z,10.97
2019-03-08T02:23:24.425Z,10.00
2019-03-08T02:24:28.192Z,10.43
2019-03-08T02:25:32.076Z,10.33
2019-03-08T02:26:35.776Z,10.23
2019-03-08T02:27:39.548Z,13.07
2019-03-08T02:28:43.189Z,13.47
2019-03-08T02:29:46.895Z,11.73
2019-03-08T02:30:50.609Z,10.40
2019-03-08T02:31:54.250Z,17.73
2019-03-08T02:32:58.386Z,14.30
2019-03-08T02:34:02.010Z,9.47
2019-03-08T02:35:07.141Z,15.40
2019-03-08T02:36:11.076Z,11.53
2019-03-08T02:37:14.707Z,12.73
2019-03-08T02:38:18.808Z,12.10
2019-03-08T02:39:22.777Z,11.37
2019-03-08T02:40:29.257Z,14.17
2019-03-08T02:41:33.154Z,11.97
2019-03-08T02:42:36.798Z,12.30
2019-03-08T02:43:40.392Z,13.77
2019-03-08T02:44:44.036Z,11.83
2019-03-08T02:45:47.737Z,10.77
2019-03-08T02:46:51.367Z,12.07
2019-03-08T02:47:54.994Z,8.83
2019-03-08T02:48:58.663Z,10.70
2019-03-08T02:50:02.299Z,12.03
2019-03-08T02:51:05.922Z,11.17
2019-03-08T02:52:09.559Z,9.50
2019-03-08T02:53:13.267Z,10.13
2019-03-08T02:54:16.943Z,9.23
2019-03-08T02:55:20.579Z,10.10
2019-03-08T02:56:24.480Z,9.37
2019-03-08T02:57:28.102Z,9.20
2019-03-08T02:58:31.659Z,8.20
2019-03-08T02:59:35.740Z,8.57
2019-03-08T03:00:44.664Z,8.83
2019-03-08T03:01:48.290Z,9.27
2019-03-08T03:02:51.946Z,9.73
2019-03-08T03:03:55.573Z,13.47
2019-03-08T03:04:59.160Z,14.93
2019-03-08T03:06:02.861Z,14.53
2019-03-08T03:07:06.874Z,14.27
2019-03-08T03:08:10.513Z,12.97
2019-03-08T03:09:14.468Z,17.57
2019-03-08T03:10:18.351Z,15.30
2019-03-08T03:11:21.910Z,15.90
2019-03-08T03:12:25.540Z,12.83
2019-03-08T03:13:29.451Z,14.67
2019-03-08T03:14:33.083Z,14.00
2019-03-08T03:15:36.759Z,13.37
2019-03-08T03:16:40.390Z,18.23
2019-03-08T03:17:43.962Z,14.77
2019-03-08T03:18:47.597Z,20.90
2019-03-08T03:19:51.274Z,17.97
2019-03-08T03:20:54.949Z,16.23
2019-03-08T03:21:58.582Z,17.17
2019-03-08T03:23:02.223Z,17.30
2019-03-08T03:24:05.849Z,14.40
2019-03-08T03:25:14.130Z,16.83
2019-03-08T03:26:17.794Z,18.10
2019-03-08T03:27:21.441Z,12.33
2019-03-08T03:28:25.250Z,16.00
2019-03-08T03:29:28.925Z,14.20
2019-03-08T03:30:32.519Z,14.33
2019-03-08T03:31:36.144Z,15.63
2019-03-08T03:32:39.780Z,16.57
2019-03-08T03:33:43.395Z,17.50
2019-03-08T03:34:47.038Z,14.50
2019-03-08T03:35:51.106Z,14.87
2019-03-08T03:36:54.666Z,14.23
2019-03-08T03:37:58.311Z,17.23
2019-03-08T03:39:01.940Z,16.00
2019-03-08T03:40:11.267Z,14.00
2019-03-08T03:41:14.966Z,14.00
2019-03-08T03:42:18.613Z,17.53
2019-03-08T03:43:22.246Z,15.63
2019-03-08T03:44:25.885Z,15.07
2019-03-08T03:45:29.625Z,13.33
2019-03-08T03:46:33.262Z,13.47
2019-03-08T03:47:37.002Z,11.17
2019-03-08T03:48:40.632Z,11.73
2019-03-08T03:49:44.336Z,11.13
2019-03-08T03:50:47.963Z,10.07
2019-03-08T03:51:51.603Z,13.97
2019-03-08T03:52:55.332Z,9.70
2019-03-08T03:53:59.029Z,11.53
2019-03-08T03:55:02.673Z,10.10
2019-03-08T03:56:06.301Z,12.23
2019-03-08T03:57:09.999Z,11.00
2019-03-08T03:58:13.666Z,10.47
2019-03-08T03:59:17.365Z,11.97
2019-03-08T04:00:23.337Z,11.77
2019-03-08T04:01:34.652Z,14.47
2019-03-08T04:02:39.027Z,12.90
2019-03-08T04:03:42.693Z,11.20
2019-03-08T04:04:46.324Z,13.70
2019-03-08T04:05:50.032Z,12.20
2019-03-08T04:06:53.670Z,13.47
2019-03-08T04:07:57.439Z,14.60
2019-03-08T04:09:01.098Z,13.77
2019-03-08T04:10:07.485Z,17.20
2019-03-08T04:11:11.441Z,18.03
2019-03-08T04:12:15.154Z,15.30
2019-03-08T04:13:18.731Z,23.13
2019-03-08T04:14:22.409Z,18.80
2019-03-08T04:15:26.033Z,18.47
2019-03-08T04:16:29.662Z,22.37
2019-03-08T04:17:33.550Z,17.77
2019-03-08T04:18:37.575Z,17.03
2019-03-08T04:19:41.336Z,17.27
2019-03-08T04:20:45.136Z,18.07
2019-03-08T04:21:48.779Z,16.43
2019-03-08T04:22:52.409Z,17.30
2019-03-08T04:23:56.044Z,18.83
2019-03-08T04:24:59.715Z,33.83
2019-03-08T04:26:03.418Z,30.80
2019-03-08T04:27:07.419Z,22.60
2019-03-08T04:28:11.074Z,19.07
2019-03-08T04:29:14.758Z,19.27
2019-03-08T04:30:21.780Z,22.67
2019-03-08T04:31:27.853Z,18.83
2019-03-08T04:32:31.492Z,20.17
2019-03-08T04:33:35.135Z,16.73
2019-03-08T04:34:39.185Z,18.83
2019-03-08T04:35:42.857Z,19.87
2019-03-08T04:36:46.498Z,19.33
2019-03-08T04:37:50.144Z,18.23
2019-03-08T04:38:53.772Z,19.33
2019-03-08T04:39:57.411Z,20.10
2019-03-08T04:41:01.146Z,21.53
2019-03-08T04:42:04.837Z,24.47
2019-03-08T04:43:08.468Z,24.63
2019-03-08T04:44:12.150Z,26.63
2019-03-08T04:45:16.762Z,22.47
2019-03-08T04:46:20.437Z,23.73
2019-03-08T04:47:24.075Z,21.77
2019-03-08T04:48:27.703Z,21.30
2019-03-08T04:49:31.622Z,27.00
2019-03-08T04:50:35.270Z,34.80
2019-03-08T04:51:39.873Z,33.43
2019-03-08T04:52:43.513Z,34.77
2019-03-08T04:53:47.136Z,30.27
2019-03-08T04:54:50.771Z,29.03
2019-03-08T04:55:54.446Z,27.33
2019-03-08T04:56:58.038Z,28.23
2019-03-08T04:58:01.771Z,29.30
2019-03-08T04:59:05.718Z,26.53
2019-03-08T05:00:17.266Z,28.23
2019-03-08T05:01:20.911Z,23.83
2019-03-08T05:02:24.994Z,22.90
2019-03-08T05:03:28.624Z,23.17
2019-03-08T05:04:32.258Z,17.60
2019-03-08T05:05:35.892Z,19.77
2019-03-08T05:06:39.812Z,21.83
2019-03-08T05:07:43.580Z,20.13
2019-03-08T05:08:47.210Z,19.37
2019-03-08T05:09:50.852Z,17.17
2019-03-08T05:10:54.491Z,20.13
2019-03-08T05:11:58.123Z,21.03
2019-03-08T05:13:01.801Z,20.97
2019-03-08T05:14:05.450Z,21.27
2019-03-08T05:15:09.088Z,25.73
2019-03-08T05:16:12.750Z,29.53
2019-03-08T05:17:16.449Z,27.43
2019-03-08T05:18:20.071Z,24.83
2019-03-08T05:19:23.625Z,25.07
2019-03-08T05:20:27.442Z,29.90
2019-03-08T05:21:31.261Z,28.60
2019-03-08T05:22:34.830Z,26.57
2019-03-08T05:23:38.485Z,21.00
2019-03-08T05:24:42.421Z,29.17
2019-03-08T05:25:46.054Z,28.13
2019-03-08T05:26:49.686Z,32.33
2019-03-08T05:27:53.321Z,25.67
2019-03-08T05:28:56.986Z,33.53
2019-03-08T05:30:00.619Z,30.97
2019-03-08T05:31:04.258Z,31.43
2019-03-08T05:32:07.892Z,37.60
2019-03-08T05:33:11.517Z,40.87
2019-03-08T05:34:15.264Z,37.67
2019-03-08T05:35:19.088Z,46.77
2019-03-08T05:36:23.068Z,38.60
2019-03-08T05:37:27.021Z,47.07
2019-03-08T05:38:30.659Z,42.07
2019-03-08T05:39:34.328Z,37.53
2019-03-08T05:40:37.965Z,52.33
2019-03-08T05:41:41.606Z,38.40
2019-03-08T05:42:45.254Z,39.60
2019-03-08T05:43:48.976Z,36.70
2019-03-08T05:44:52.577Z,42.20
2019-03-08T05:45:56.649Z,38.90
2019-03-08T05:47:00.198Z,36.27
2019-03-08T05:48:03.827Z,34.00
2019-03-08T05:49:07.460Z,32.60
2019-03-08T05:50:12.335Z,31.97
2019-03-08T05:51:16.570Z,39.57
2019-03-08T05:52:20.235Z,45.40
2019-03-08T05:53:23.801Z,37.43
2019-03-08T05:54:27.435Z,39.63
2019-03-08T05:55:31.075Z,36.80
2019-03-08T05:56:34.707Z,42.50
2019-03-08T05:57:38.338Z,41.13
2019-03-08T05:58:42.005Z,43.73
2019-03-08T05:59:45.639Z,43.47
2019-03-08T06:00:49.278Z,47.07
2019-03-08T06:01:52.986Z,56.97
2019-03-08T06:02:56.622Z,52.80
2019-03-08T06:04:00.278Z,53.77
2019-03-08T06:05:05.184Z,57.93
2019-03-08T06:06:08.821Z,63.13
2019-03-08T06:07:12.465Z,53.77
2019-03-08T06:08:16.095Z,53.43
2019-03-08T06:09:19.766Z,47.47
2019-03-08T06:10:28.102Z,49.33
2019-03-08T06:11:31.747Z,45.13
2019-03-08T06:12:35.396Z,46.70
2019-03-08T06:13:39.021Z,43.70
2019-03-08T06:14:43.057Z,36.07
2019-03-08T06:15:47.069Z,42.43
2019-03-08T06:16:50.715Z,43.37
2019-03-08T06:17:56.367Z,43.67
2019-03-08T06:18:59.632Z,37.73
2019-03-08T06:20:03.510Z,41.97
2019-03-08T06:21:07.327Z,39.63
2019-03-08T06:22:11.106Z,43.83
2019-03-08T06:23:14.743Z,51.27
2019-03-08T06:24:18.389Z,44.60
2019-03-08T06:25:22.056Z,43.07
2019-03-08T06:26:25.752Z,53.70
2019-03-08T06:27:29.401Z,44.20
2019-03-08T06:28:33.034Z,39.63
2019-03-08T06:29:36.661Z,39.23
2019-03-08T06:30:40.328Z,38.73
2019-03-08T06:31:44.038Z,35.27
2019-03-08T06:32:47.677Z,35.77
2019-03-08T06:33:51.243Z,35.07
2019-03-08T06:34:54.980Z,35.37
2019-03-08T06:35:58.645Z,34.57
2019-03-08T06:37:02.317Z,33.77
2019-03-08T06:38:05.952Z,37.20
2019-03-08T06:39:09.650Z,36.13
2019-03-08T06:40:14.383Z,36.37
2019-03-08T06:41:18.059Z,37.13
2019-03-08T06:42:21.689Z,36.17
2019-03-08T06:43:25.325Z,40.17
2019-03-08T06:44:28.976Z,42.60
2019-03-08T06:45:32.617Z,36.50
2019-03-08T06:46:36.286Z,45.97
2019-03-08T06:47:39.926Z,48.03
2019-03-08T06:48:43.571Z,42.63
2019-03-08T06:49:47.490Z,36.70
2019-03-08T06:50:51.129Z,39.03
2019-03-08T06:51:54.727Z,40.60
2019-03-08T06:52:58.370Z,37.93
2019-03-08T06:54:02.025Z,42.90
2019-03-08T06:55:07.365Z,40.80
2019-03-08T06:56:10.937Z,40.37
2019-03-08T06:57:14.652Z,39.00
2019-03-08T06:58:19.903Z,40.57
2019-03-08T06:59:25.184Z,37.23
2019-03-08T07:00:36.276Z,34.33
2019-03-08T07:01:40.417Z,43.70
2019-03-08T07:02:44.098Z,36.13
2019-03-08T07:03:47.741Z,41.80
2019-03-08T07:04:51.388Z,39.03
2019-03-08T07:05:55.023Z,41.60
2019-03-08T07:06:58.842Z,30.57
2019-03-08T07:08:02.506Z,33.77
2019-03-08T07:09:07.042Z,34.43
2019-03-08T07:10:11.019Z,40.60
2019-03-08T07:11:14.658Z,35.00
2019-03-08T07:12:18.306Z,32.23
2019-03-08T07:13:21.962Z,35.50
2019-03-08T07:14:25.612Z,32.13
2019-03-08T07:15:29.319Z,32.67
2019-03-08T07:16:33.240Z,32.47
2019-03-08T07:17:36.875Z,35.07
2019-03-08T07:18:40.666Z,35.83
2019-03-08T07:19:49.383Z,34.90
2019-03-08T07:20:55.057Z,35.57
2019-03-08T07:22:00.337Z,35.47
2019-03-08T07:23:11.813Z,33.23
2019-03-08T07:24:19.851Z,34.40
2019-03-08T07:25:40.779Z,35.10
2019-03-08T07:26:58.034Z,35.53
2019-03-08T07:28:19.646Z,35.97
2019-03-08T07:29:41.403Z,40.30
2019-03-08T07:31:04.878Z,43.40
2019-03-08T07:32:27.018Z,37.03
2019-03-08T07:33:32.295Z,41.33
2019-03-08T07:34:37.559Z,30.50
2019-03-08T07:35:45.653Z,37.27
2019-03-08T07:36:50.936Z,40.40
2019-03-08T07:38:02.196Z,34.13
2019-03-08T07:39:12.930Z,32.83
2019-03-08T07:40:36.663Z,30.50
2019-03-08T07:41:47.733Z,31.80
2019-03-08T07:43:05.406Z,35.33
2019-03-08T07:44:10.689Z,32.37
2019-03-08T07:45:31.015Z,35.83
2019-03-08T07:46:54.462Z,28.57
2019-03-08T07:48:08.905Z,24.70
2019-03-08T07:49:16.930Z,31.93
2019-03-08T07:50:25.205Z,26.13
2019-03-08T07:51:30.483Z,25.93
2019-03-08T07:52:35.804Z,27.43
2019-03-08T07:53:46.940Z,25.67
2019-03-08T07:54:55.318Z,28.73
2019-03-08T07:56:03.369Z,25.97
2019-03-08T07:57:14.117Z,24.97
2019-03-08T07:58:22.361Z,28.03
2019-03-08T07:59:33.480Z,23.97
2019-03-08T08:00:50.501Z,27.67
2019-03-08T08:01:58.571Z,24.30
2019-03-08T08:03:15.988Z,25.87
2019-03-08T08:04:37.556Z,24.50
2019-03-08T08:05:57.368Z,29.67
2019-03-08T08:06:58.534Z,23.90
2019-03-08T08:08:15.650Z,27.63
2019-03-08T08:09:21.264Z,20.13
2019-03-08T08:10:26.581Z,24.97
2019-03-08T08:11:34.965Z,23.60
2019-03-08T08:12:56.667Z,22.87
2019-03-08T08:14:07.691Z,22.77
2019-03-08T08:15:13.672Z,21.87
2019-03-08T08:16:34.016Z,26.17
2019-03-08T08:17:39.305Z,21.90
2019-03-08T08:19:02.482Z,19.70
2019-03-08T08:20:16.879Z,18.90
2019-03-08T08:21:28.469Z,21.43
2019-03-08T08:22:33.783Z,20.47
2019-03-08T08:23:39.069Z,22.83
2019-03-08T08:25:01.618Z,19.90
2019-03-08T08:26:10.078Z,17.60
2019-03-08T08:27:27.332Z,18.43
2019-03-08T08:28:32.656Z,24.23
2019-03-08T08:29:37.940Z,23.53
2019-03-08T08:30:43.163Z,22.50
2019-03-08T08:31:51.210Z,22.47
2019-03-08T08:33:08.410Z,20.53
2019-03-08T08:34:22.398Z,18.57
2019-03-08T08:35:45.710Z,19.43
2019-03-08T08:37:09.125Z,24.03
2019-03-08T08:38:14.396Z,20.23
2019-03-08T08:39:22.397Z,23.17
2019-03-08T08:40:33.968Z,20.17
2019-03-08T08:41:39.253Z,18.90
2019-03-08T08:42:56.534Z,21.03
2019-03-08T08:44:04.940Z,22.40
2019-03-08T08:45:14.931Z,19.10
2019-03-08T08:46:32.409Z,22.63
2019-03-08T08:47:40.609Z,21.77
2019-03-08T08:48:46.006Z,21.07
2019-03-08T08:49:55.732Z,20.53
2019-03-08T08:50:58.581Z,20.50
2019-03-08T08:52:06.470Z,21.23
2019-03-08T08:53:17.378Z,17.47
2019-03-08T08:54:22.947Z,21.13
2019-03-08T08:55:46.261Z,21.77
2019-03-08T08:56:57.264Z,17.53
2019-03-08T08:58:11.574Z,20.90
2019-03-08T08:59:19.735Z,26.87
2019-03-08T09:00:41.225Z,22.03
2019-03-08T09:01:58.309Z,14.60
2019-03-08T09:03:19.784Z,22.10
2019-03-08T09:04:31.077Z,31.10
2019-03-08T09:05:36.329Z,23.37
2019-03-08T09:06:47.791Z,21.67
2019-03-08T09:07:58.611Z,20.87
2019-03-08T09:09:03.901Z,22.40
2019-03-08T09:10:11.785Z,18.80
2019-03-08T09:11:22.903Z,20.87
2019-03-08T09:12:28.195Z,23.57
2019-03-08T09:13:51.675Z,16.37
2019-03-08T09:15:03.297Z,18.77
2019-03-08T09:16:08.843Z,19.13
2019-03-08T09:17:17.302Z,16.83
2019-03-08T09:18:22.758Z,21.00
2019-03-08T09:19:34.401Z,16.83
2019-03-08T09:20:48.581Z,15.93
2019-03-08T09:22:03.138Z,21.40
2019-03-08T09:23:14.355Z,18.07
2019-03-08T09:24:25.215Z,20.07
2019-03-08T09:25:30.499Z,15.10
2019-03-08T09:26:35.813Z,16.07
2019-03-08T09:27:57.223Z,16.30
2019-03-08T09:29:02.497Z,13.20
2019-03-08T09:30:25.584Z,19.47
2019-03-08T09:31:31.015Z,14.73
2019-03-08T09:32:36.303Z,16.67
2019-03-08T09:33:48.048Z,18.60
2019-03-08T09:35:05.442Z,13.43
2019-03-08T09:36:13.811Z,20.10
2019-03-08T09:37:22.070Z,19.10
2019-03-08T09:38:27.380Z,20.60
2019-03-08T09:39:32.660Z,21.10
2019-03-08T09:40:56.947Z,18.97
2019-03-08T09:42:04.773Z,16.37
2019-03-08T09:43:24.918Z,16.37
2019-03-08T09:44:30.207Z,16.07
2019-03-08T09:45:50.516Z,19.65
2019-03-08T09:46:55.746Z,13.33
2019-03-08T09:48:03.982Z,13.18
2019-03-08T09:49:18.409Z,13.88
2019-03-08T09:50:30.091Z,12.45
2019-03-08T09:51:41.565Z,14.70
2019-03-08T09:52:46.853Z,11.60
2019-03-08T09:53:52.502Z,9.10
2019-03-08T09:54:58.569Z,6.47
2019-03-08T09:56:09.630Z,6.33
2019-03-08T09:57:14.901Z,7.53
2019-03-08T09:58:36.455Z,8.03
2019-03-08T09:59:56.927Z,10.08
2019-03-08T10:01:05.522Z,7.70
2019-03-08T10:02:26.266Z,7.60
2019-03-08T10:03:46.771Z,7.22
2019-03-08T10:04:57.378Z,6.58
2019-03-08T10:06:05.700Z,6.10
2019-03-08T10:07:14.435Z,9.60
2019-03-08T10:08:19.739Z,8.28
2019-03-08T10:09:37.317Z,6.03
2019-03-08T10:10:57.984Z,5.03
2019-03-08T10:12:06.243Z,11.38
2019-03-08T10:13:14.187Z,7.62
2019-03-08T10:14:19.403Z,8.20
2019-03-08T10:15:33.880Z,7.50
2019-03-08T10:16:42.002Z,10.80
2019-03-08T10:17:47.277Z,7.78
2019-03-08T10:18:52.480Z,8.23
2019-03-08T10:20:09.544Z,10.08
2019-03-08T10:21:15.091Z,6.95
2019-03-08T10:22:29.436Z,8.83
2019-03-08T10:23:46.881Z,10.05
2019-03-08T10:25:04.443Z,9.65
2019-03-08T10:26:22.098Z,6.45
2019-03-08T10:27:27.364Z,6.62
2019-03-08T10:28:51.145Z,7.10
2019-03-08T10:29:56.418Z,9.20
2019-03-08T10:31:04.091Z,7.70
2019-03-08T10:32:21.507Z,5.95
2019-03-08T10:33:46.710Z,8.03
2019-03-08T10:34:50.959Z,7.72
2019-03-08T10:36:05.606Z,5.05
2019-03-08T10:37:10.875Z,7.95
2019-03-08T10:38:22.717Z,5.67
2019-03-08T10:39:32.311Z,7.05
2019-03-08T10:40:46.017Z,8.23
2019-03-08T10:41:51.550Z,6.40
2019-03-08T10:42:58.768Z,6.37
2019-03-08T10:44:09.096Z,17.60
2019-03-08T10:45:11.954Z,8.43
2019-03-08T10:46:20.097Z,7.00
2019-03-08T10:47:41.571Z,5.30
2019-03-08T10:49:04.942Z,8.53
2019-03-08T10:50:12.886Z,7.33
2019-03-08T10:51:23.830Z,7.58
2019-03-08T10:52:29.150Z,11.25
2019-03-08T10:54:00.390Z,7.10
2019-03-08T10:55:11.554Z,6.28
2019-03-08T10:56:22.597Z,8.90
2019-03-08T10:57:30.720Z,10.05
2019-03-08T10:58:35.998Z,12.80
2019-03-08T10:59:44.218Z,7.58
2019-03-08T11:00:58.558Z,7.65
2019-03-08T11:02:09.782Z,10.82
2019-03-08T11:03:15.068Z,6.55
2019-03-08T11:04:29.540Z,7.03
2019-03-08T11:05:34.825Z,6.25
2019-03-08T11:06:58.597Z,7.85
2019-03-08T11:08:29.582Z,9.80
2019-03-08T11:09:44.590Z,7.87
2019-03-08T11:10:52.706Z,10.38
2019-03-08T11:12:14.120Z,9.78
2019-03-08T11:13:43.180Z,7.85
2019-03-08T11:14:53.862Z,9.63
2019-03-08T11:15:59.133Z,7.95
2019-03-08T11:17:19.291Z,6.35
2019-03-08T11:18:24.822Z,6.08
2019-03-08T11:19:30.093Z,7.08
2019-03-08T11:20:51.687Z,8.70
2019-03-08T11:22:09.205Z,7.10
2019-03-08T11:23:20.350Z,5.67
2019-03-08T11:24:42.128Z,8.63
2019-03-08T11:25:53.446Z,6.80
2019-03-08T11:27:07.459Z,8.13
2019-03-08T11:28:29.314Z,7.37
2019-03-08T11:29:34.584Z,8.40
2019-03-08T11:30:42.891Z,7.00
2019-03-08T11:31:51.379Z,11.45
2019-03-08T11:32:59.365Z,5.90
2019-03-08T11:34:13.844Z,6.42
2019-03-08T11:35:31.097Z,6.65
2019-03-08T11:36:42.263Z,7.67
2019-03-08T11:38:03.332Z,9.33
2019-03-08T11:39:22.983Z,5.75
2019-03-08T11:40:28.257Z,8.35
2019-03-08T11:41:33.532Z,6.85
2019-03-08T11:42:41.852Z,7.53
2019-03-08T11:43:47.153Z,8.38
2019-03-08T11:44:58.440Z,6.03
2019-03-08T11:46:03.742Z,6.95
2019-03-08T11:47:11.704Z,7.83
2019-03-08T11:48:23.034Z,6.10
2019-03-08T11:49:46.320Z,6.80
2019-03-08T11:51:07.802Z,9.05
2019-03-08T11:52:31.159Z,6.65
2019-03-08T11:53:56.234Z,6.22
2019-03-08T11:55:15.644Z,4.92
2019-03-08T11:56:37.059Z,10.80
2019-03-08T11:57:54.323Z,10.18
2019-03-08T11:59:14.483Z,8.63
2019-03-08T12:00:22.596Z,6.40
2019-03-08T12:01:30.660Z,6.72
2019-03-08T12:02:38.049Z,8.03
2019-03-08T12:03:59.188Z,4.92
2019-03-08T12:05:20.680Z,6.50
2019-03-08T12:06:41.306Z,14.10
2019-03-08T12:07:49.256Z,7.80
2019-03-08T12:08:54.535Z,7.03
2019-03-08T12:10:15.950Z,9.35
2019-03-08T12:11:21.331Z,4.97
2019-03-08T12:12:26.604Z,6.70
2019-03-08T12:13:32.346Z,6.97
2019-03-08T12:14:37.719Z,7.10
2019-03-08T12:15:59.428Z,9.93
2019-03-08T12:17:04.759Z,6.35
2019-03-08T12:18:10.036Z,6.70
2019-03-08T12:19:31.555Z,6.20
2019-03-08T12:20:42.646Z,9.08
2019-03-08T12:21:47.920Z,7.55
2019-03-08T12:23:09.351Z,8.20
2019-03-08T12:24:14.620Z,7.95
2019-03-08T12:25:22.917Z,7.37
2019-03-08T12:26:37.257Z,6.67
2019-03-08T12:27:42.561Z,6.42
2019-03-08T12:29:04.362Z,7.40
2019-03-08T12:30:21.210Z,11.03
2019-03-08T12:31:33.127Z,9.05
2019-03-08T12:32:41.750Z,11.35
2019-03-08T12:34:02.219Z,5.25
2019-03-08T12:35:25.890Z,8.33
2019-03-08T12:36:31.177Z,7.12
2019-03-08T12:37:52.393Z,6.10
2019-03-08T12:39:09.779Z,5.70
2019-03-08T12:40:15.811Z,7.67
2019-03-08T12:41:21.100Z,6.25
2019-03-08T12:42:42.864Z,7.22
2019-03-08T12:43:54.480Z,5.53
2019-03-08T12:45:05.956Z,5.87
2019-03-08T12:46:23.179Z,10.78
2019-03-08T12:47:28.799Z,10.48
2019-03-08T12:48:43.646Z,6.00
2019-03-08T12:49:51.910Z,8.08
2019-03-08T12:51:09.465Z,8.43
2019-03-08T12:52:23.833Z,7.87
2019-03-08T12:53:37.756Z,6.22
2019-03-08T12:54:45.746Z,6.55
2019-03-08T12:55:53.645Z,10.68
2019-03-08T12:57:10.871Z,7.37
2019-03-08T12:58:28.082Z,6.42
2019-03-08T12:59:49.571Z,7.00
2019-03-08T13:01:00.879Z,8.10
2019-03-08T13:02:18.527Z,9.88
2019-03-08T13:03:29.476Z,9.13
2019-03-08T13:04:43.550Z,8.28
2019-03-08T13:06:04.907Z,9.45
2019-03-08T13:07:28.502Z,6.53
2019-03-08T13:08:38.937Z,8.08
2019-03-08T13:09:44.209Z,8.95
2019-03-08T13:10:47.842Z,9.10
2019-03-08T13:11:51.483Z,9.08
2019-03-08T13:12:55.179Z,10.15
2019-03-08T13:13:58.793Z,6.72
2019-03-08T13:15:02.502Z,10.45
2019-03-08T13:16:06.227Z,12.20
2019-03-08T13:17:09.867Z,11.70
2019-03-08T13:18:13.712Z,8.45
2019-03-08T13:19:19.280Z,7.75
2019-03-08T13:20:23.096Z,8.68
2019-03-08T13:21:26.820Z,6.65
2019-03-08T13:22:30.451Z,10.03
2019-03-08T13:23:34.116Z,6.17
2019-03-08T13:24:37.841Z,8.23
2019-03-08T13:25:41.476Z,5.00
2019-03-08T13:26:45.127Z,7.10
2019-03-08T13:27:48.739Z,8.63
2019-03-08T13:28:56.909Z,6.10
2019-03-08T13:30:00.648Z,6.80
2019-03-08T13:31:04.319Z,4.72
2019-03-08T13:32:07.955Z,4.40
2019-03-08T13:33:11.591Z,6.58
2019-03-08T13:34:15.515Z,6.10
2019-03-08T13:35:19.335Z,4.87
2019-03-08T13:36:22.959Z,4.97
2019-03-08T13:37:26.662Z,7.47
2019-03-08T13:38:30.375Z,7.45
2019-03-08T13:39:34.017Z,6.22
2019-03-08T13:40:37.575Z,3.98
2019-03-08T13:41:41.214Z,11.60
2019-03-08T13:42:44.853Z,5.17
2019-03-08T13:43:49.048Z,8.85
2019-03-08T13:44:52.779Z,23.00
2019-03-08T13:45:56.418Z,12.60
2019-03-08T13:47:00.044Z,10.25
2019-03-08T13:48:03.669Z,7.03
2019-03-08T13:49:07.480Z,6.58
2019-03-08T13:50:13.831Z,8.03
2019-03-08T13:51:17.471Z,5.97
2019-03-08T13:52:21.101Z,9.28
2019-03-08T13:53:24.729Z,8.25
2019-03-08T13:54:28.363Z,6.78
2019-03-08T13:55:32.035Z,5.58
2019-03-08T13:56:35.687Z,6.08
2019-03-08T13:57:39.324Z,6.75
2019-03-08T13:58:42.966Z,6.03
2019-03-08T13:59:46.606Z,6.55
2019-03-08T14:00:50.285Z,9.45
2019-03-08T14:01:53.858Z,6.62
2019-03-08T14:02:57.490Z,5.50
2019-03-08T14:04:01.047Z,8.60
2019-03-08T14:05:06.462Z,6.47
2019-03-08T14:06:10.206Z,12.55
2019-03-08T14:07:13.856Z,6.85
2019-03-08T14:08:17.537Z,11.78
2019-03-08T14:09:21.189Z,9.45
2019-03-08T14:10:24.851Z,19.42
2019-03-08T14:11:28.519Z,56.98
2019-03-08T14:12:32.145Z,7.90
2019-03-08T14:13:35.862Z,7.10
2019-03-08T14:14:39.495Z,9.20
2019-03-08T14:15:43.216Z,7.73
2019-03-08T14:16:46.819Z,34.77
2019-03-08T14:17:50.469Z,16.33
2019-03-08T14:18:54.188Z,8.10
2019-03-08T14:19:57.957Z,11.30
2019-03-08T14:21:02.729Z,8.97
2019-03-08T14:22:06.836Z,24.83
2019-03-08T14:23:10.482Z,23.70
2019-03-08T14:24:14.161Z,12.87
2019-03-08T14:25:17.795Z,16.60
2019-03-08T14:26:21.421Z,6.77
2019-03-08T14:27:25.403Z,14.73
2019-03-08T14:28:29.134Z,14.23
2019-03-08T14:29:32.712Z,85.42
2019-03-08T14:30:38.189Z,32.15
2019-03-08T14:31:45.445Z,16.47
2019-03-08T14:32:48.911Z,22.63